Time,TemperatureF,DewpointF,PressureIn,WindDirection,WindDirectionDegrees,WindSpeedMPH,WindSpeedGustMPH,Humidity,HourlyPrecipIn,Conditions,Clouds,dailyrainin,SoftwareType,DateUTC
2013-02-28 00:01:00,32.0,25.0,29.90,NNE,15,2.0,3.0,75,0.00,,,0.00,,2013-02-28 06:01:00,
2013-02-28 00:11:00,32.0,25.0,29.90,NNE,15,2.0,3.0,75,0.00,,,0.00,,2013-02-28 06:11:00,
2013-02-28 00:22:00,32.0,24.0,29.90,NNE,22,2.0,6.0,73,0.00,,,0.00,,2013-02-28 06:22:00,
2013-02-28 00:32:00,32.0,24.0,29.91,NNE,26,1.0,3.0,72,0.00,,,0.00,,2013-02-28 06:32:00,
2013-02-28 00:42:00,32.0,24.0,29.91,NNE,26,1.0,3.0,72,0.00,,,0.00,,2013-02-28 06:42:00,
2013-02-28 00:51:00,32.0,25.0,29.91,NE,39,1.0,5.0,75,0.00,,,0.00,,2013-02-28 06:51:00,
2013-02-28 01:01:00,31.0,24.0,29.91,NNE,22,2.0,5.0,76,0.00,,,0.00,,2013-02-28 07:01:00,
2013-02-28 01:11:00,31.0,24.0,29.91,NNE,22,2.0,5.0,76,0.00,,,0.00,,2013-02-28 07:11:00,
2013-02-28 01:21:00,31.0,25.0,29.91,NNE,19,1.0,5.0,77,0.00,,,0.00,,2013-02-28 07:21:00,
2013-02-28 01:31:00,31.0,25.0,29.91,NNE,23,1.0,3.0,78,0.00,,,0.00,,2013-02-28 07:31:00,
2013-02-28 01:41:00,31.0,25.0,29.91,NNE,23,1.0,3.0,78,0.00,,,0.00,,2013-02-28 07:41:00,
2013-02-28 01:51:00,31.0,26.0,29.92,NNE,24,0.0,3.0,80,0.00,,,0.00,,2013-02-28 07:51:00,
2013-02-28 02:01:00,31.0,26.0,29.92,NNE,17,1.0,3.0,81,0.00,,,0.00,,2013-02-28 08:01:00,
2013-02-28 02:11:00,31.0,26.0,29.92,NNE,17,1.0,3.0,81,0.00,,,0.00,,2013-02-28 08:11:00,
2013-02-28 02:22:00,30.0,25.0,29.92,North,0,2.0,5.0,82,0.00,,,0.00,,2013-02-28 08:22:00,
2013-02-28 02:32:00,30.0,25.0,29.92,NNE,13,1.0,3.0,82,0.00,,,0.00,,2013-02-28 08:32:00,
2013-02-28 02:42:00,30.0,25.0,29.92,NNE,13,1.0,3.0,82,0.00,,,0.00,,2013-02-28 08:42:00,
2013-02-28 02:52:00,31.0,26.0,29.92,NNE,15,1.0,6.0,81,0.00,,,0.00,,2013-02-28 08:52:00,
2013-02-28 03:03:00,31.0,25.0,29.92,NE,56,1.0,7.0,79,0.00,,,0.00,,2013-02-28 09:03:00,
2013-02-28 03:11:00,31.0,25.0,29.92,NE,56,1.0,7.0,79,0.00,,,0.00,,2013-02-28 09:11:00,
2013-02-28 03:21:00,31.0,25.0,29.92,North,5,3.0,7.0,78,0.00,,,0.00,,2013-02-28 09:21:00,
2013-02-28 03:32:00,31.0,25.0,29.93,NNE,24,2.0,6.0,77,0.00,,,0.00,,2013-02-28 09:32:00,
2013-02-28 03:42:00,31.0,25.0,29.93,NNE,24,2.0,6.0,77,0.00,,,0.00,,2013-02-28 09:42:00,
2013-02-28 03:52:00,31.0,24.0,29.93,NNE,23,2.0,8.0,75,0.00,,,0.00,,2013-02-28 09:52:00,
2013-02-28 04:01:00,31.0,24.0,29.93,North,10,4.0,10.0,74,0.00,,,0.00,,2013-02-28 10:01:00,
2013-02-28 04:11:00,31.0,24.0,29.94,NNE,12,3.0,8.0,74,0.00,,,0.00,,2013-02-28 10:11:00,
2013-02-28 04:22:00,31.0,24.0,29.94,NNE,12,3.0,8.0,74,0.00,,,0.00,,2013-02-28 10:22:00,
2013-02-28 04:32:00,31.0,24.0,29.94,NNE,22,3.0,7.0,74,0.00,,,0.00,,2013-02-28 10:32:00,
2013-02-28 04:42:00,31.0,24.0,29.94,NNE,22,3.0,7.0,74,0.00,,,0.00,,2013-02-28 10:42:00,
2013-02-28 04:52:00,31.0,24.0,29.95,NNE,24,2.0,8.0,74,0.00,,,0.00,,2013-02-28 10:52:00,
2013-02-28 05:01:00,30.0,23.0,29.96,NNE,19,3.0,10.0,75,0.00,,,0.00,,2013-02-28 11:01:00,
2013-02-28 05:11:00,30.0,23.0,29.96,NNE,19,3.0,10.0,75,0.00,,,0.00,,2013-02-28 11:11:00,
2013-02-28 05:21:00,30.0,23.0,29.96,NNE,12,6.0,10.0,75,0.00,,,0.00,,2013-02-28 11:21:00,
2013-02-28 05:32:00,30.0,23.0,29.97,NNE,12,2.0,7.0,76,0.00,,,0.00,,2013-02-28 11:32:00,
2013-02-28 05:42:00,30.0,23.0,29.97,NNE,12,2.0,7.0,76,0.00,,,0.00,,2013-02-28 11:42:00,
2013-02-28 05:52:00,30.0,23.0,29.98,North,8,2.0,6.0,76,0.00,,,0.00,,2013-02-28 11:52:00,
2013-02-28 06:01:00,30.0,23.0,29.98,NNE,20,4.0,8.0,75,0.00,,,0.00,,2013-02-28 12:01:00,
2013-02-28 06:11:00,30.0,23.0,29.98,NNE,20,4.0,8.0,75,0.00,,,0.00,,2013-02-28 12:11:00,
2013-02-28 06:21:00,30.0,23.0,29.98,North,5,2.0,8.0,75,0.00,,,0.00,,2013-02-28 12:21:00,
2013-02-28 06:32:00,30.0,23.0,29.99,NNE,15,2.0,7.0,75,0.00,,,0.00,,2013-02-28 12:32:00,
2013-02-28 06:42:00,30.0,23.0,29.99,NNE,15,2.0,7.0,75,0.00,,,0.00,,2013-02-28 12:42:00,
2013-02-28 06:52:00,30.0,23.0,29.99,NNE,20,2.0,7.0,75,0.00,,,0.00,,2013-02-28 12:52:00,
2013-02-28 07:01:00,29.0,22.0,30.00,North,10,2.0,8.0,75,0.00,,,0.00,,2013-02-28 13:01:00,
2013-02-28 07:11:00,29.0,22.0,30.00,NNE,12,3.0,6.0,75,0.00,,,0.00,,2013-02-28 13:11:00,
2013-02-28 07:21:00,29.0,22.0,30.00,NNE,12,3.0,6.0,75,0.00,,,0.00,,2013-02-28 13:21:00,
2013-02-28 07:32:00,29.0,22.0,30.01,NNE,19,4.0,12.0,75,0.00,,,0.00,,2013-02-28 13:32:00,
2013-02-28 07:42:00,29.0,22.0,30.01,NNE,19,4.0,12.0,75,0.00,,,0.00,,2013-02-28 13:42:00,
2013-02-28 07:52:00,29.0,22.0,30.02,NNE,19,2.0,8.0,74,0.00,,,0.00,,2013-02-28 13:52:00,
2013-02-28 08:01:00,29.0,22.0,30.02,NW,309,3.0,8.0,74,0.00,,,0.00,,2013-02-28 14:01:00,
2013-02-28 08:11:00,29.0,22.0,30.02,NE,44,3.0,9.0,74,0.00,,,0.00,,2013-02-28 14:11:00,
2013-02-28 08:21:00,29.0,22.0,30.02,NE,44,3.0,9.0,74,0.00,,,0.00,,2013-02-28 14:21:00,
2013-02-28 08:32:00,29.0,22.0,30.02,NNE,30,2.0,9.0,74,0.00,,,0.00,,2013-02-28 14:32:00,
2013-02-28 08:42:00,29.0,22.0,30.02,North,0,2.0,7.0,74,0.00,,,0.00,,2013-02-28 14:42:00,
2013-02-28 08:52:00,29.0,22.0,30.02,North,0,2.0,7.0,74,0.00,,,0.00,,2013-02-28 14:52:00,
2013-02-28 09:02:00,29.0,21.0,30.02,NNE,14,2.0,9.0,73,0.00,,,0.00,,2013-02-28 15:02:00,
2013-02-28 09:11:00,29.0,21.0,30.03,North,10,4.0,9.0,73,0.00,,,0.00,,2013-02-28 15:11:00,
2013-02-28 09:21:00,29.0,21.0,30.03,North,10,4.0,9.0,73,0.00,,,0.00,,2013-02-28 15:21:00,
2013-02-28 09:32:00,29.0,21.0,30.03,North,2,5.0,12.0,71,0.00,,,0.00,,2013-02-28 15:32:00,
2013-02-28 09:41:00,29.0,21.0,30.03,North,2,5.0,12.0,71,0.00,,,0.00,,2013-02-28 15:41:00,
2013-02-28 09:52:00,29.0,21.0,30.03,WNW,303,1.0,6.0,71,0.00,,,0.00,,2013-02-28 15:52:00,
2013-02-28 10:01:00,29.0,21.0,30.04,North,11,2.0,5.0,71,0.00,,,0.00,,2013-02-28 16:01:00,
2013-02-28 10:11:00,29.0,21.0,30.04,North,7,1.0,8.0,71,0.00,,,0.00,,2013-02-28 16:11:00,
2013-02-28 10:22:00,29.0,21.0,30.04,North,7,1.0,8.0,71,0.00,,,0.00,,2013-02-28 16:22:00,
2013-02-28 10:32:00,29.0,20.0,30.05,NNE,15,2.0,7.0,70,0.00,,,0.00,,2013-02-28 16:32:00,
2013-02-28 10:42:00,29.0,20.0,30.05,NNE,15,2.0,7.0,70,0.00,,,0.00,,2013-02-28 16:42:00,
2013-02-28 10:52:00,29.0,20.0,30.05,North,8,2.0,7.0,70,0.00,,,0.00,,2013-02-28 16:52:00,
2013-02-28 11:01:00,30.0,22.0,30.06,NNW,328,1.0,3.0,71,0.00,,,0.00,,2013-02-28 17:01:00,
2013-02-28 11:11:00,29.0,21.0,30.06,NNE,19,1.0,5.0,71,0.00,,,0.00,,2013-02-28 17:11:00,
2013-02-28 11:21:00,29.0,21.0,30.06,NNE,19,1.0,5.0,71,0.00,,,0.00,,2013-02-28 17:21:00,
2013-02-28 11:32:00,30.0,22.0,30.06,NNE,12,3.0,6.0,71,0.00,,,0.00,,2013-02-28 17:32:00,
2013-02-28 11:42:00,30.0,22.0,30.06,NNE,12,3.0,6.0,71,0.00,,,0.00,,2013-02-28 17:42:00,
2013-02-28 11:52:00,30.0,21.0,30.06,NNE,14,1.0,5.0,70,0.00,,,0.00,,2013-02-28 17:52:00,
2013-02-28 12:02:00,30.0,21.0,30.06,North,6,2.0,8.0,69,0.00,,,0.00,,2013-02-28 18:02:00,
2013-02-28 12:11:00,30.0,21.0,30.06,North,5,4.0,8.0,68,0.00,,,0.00,,2013-02-28 18:11:00,
2013-02-28 12:22:00,30.0,21.0,30.06,North,5,4.0,8.0,68,0.00,,,0.00,,2013-02-28 18:22:00,
2013-02-28 12:32:00,30.0,21.0,30.06,NNE,16,1.0,5.0,68,0.00,,,0.00,,2013-02-28 18:32:00,
2013-02-28 12:42:00,30.0,20.0,30.06,NNE,21,2.0,7.0,67,0.00,,,0.00,,2013-02-28 18:42:00,
2013-02-28 12:52:00,30.0,20.0,30.06,NNE,21,2.0,7.0,67,0.00,,,0.00,,2013-02-28 18:52:00,
2013-02-28 13:01:00,31.0,21.0,30.06,North,5,1.0,5.0,67,0.00,,,0.00,,2013-02-28 19:01:00,
2013-02-28 13:11:00,31.0,21.0,30.06,NW,315,2.0,7.0,66,0.00,,,0.00,,2013-02-28 19:11:00,
2013-02-28 13:21:00,31.0,21.0,30.06,NW,315,2.0,7.0,66,0.00,,,0.00,,2013-02-28 19:21:00,
2013-02-28 13:32:00,31.0,21.0,30.06,NNE,24,1.0,6.0,65,0.00,,,0.00,,2013-02-28 19:32:00,
2013-02-28 13:41:00,31.0,21.0,30.06,NNE,24,1.0,6.0,65,0.00,,,0.00,,2013-02-28 19:41:00,
2013-02-28 13:51:00,31.0,20.0,30.06,NNE,19,1.0,8.0,64,0.00,,,0.00,,2013-02-28 19:51:00,
2013-02-28 14:01:00,32.0,22.0,30.06,WNW,284,1.0,7.0,65,0.00,,,0.00,,2013-02-28 20:01:00,
2013-02-28 14:12:00,32.0,22.0,30.06,WNW,284,1.0,7.0,65,0.00,,,0.00,,2013-02-28 20:12:00,
2013-02-28 14:21:00,32.0,22.0,30.06,North,9,2.0,6.0,65,0.00,,,0.00,,2013-02-28 20:21:00,
2013-02-28 14:32:00,31.0,20.0,30.06,NNE,17,5.0,10.0,63,0.00,,,0.00,,2013-02-28 20:32:00,
2013-02-28 14:42:00,31.0,20.0,30.06,NNE,17,5.0,10.0,63,0.00,,,0.00,,2013-02-28 20:42:00,
2013-02-28 14:52:00,32.0,21.0,30.05,North,4,1.0,5.0,63,0.00,,,0.00,,2013-02-28 20:52:00,
2013-02-28 15:01:00,32.0,21.0,30.06,North,352,1.0,7.0,63,0.00,,,0.00,,2013-02-28 21:01:00,
2013-02-28 15:11:00,32.0,21.0,30.06,North,352,1.0,7.0,63,0.00,,,0.00,,2013-02-28 21:11:00,
2013-02-28 15:22:00,31.0,21.0,30.06,NNE,22,1.0,9.0,67,0.00,,,0.00,,2013-02-28 21:22:00,
2013-02-28 15:32:00,31.0,21.0,30.06,West,277,1.0,6.0,66,0.00,,,0.00,,2013-02-28 21:32:00,
2013-02-28 15:41:00,31.0,21.0,30.06,West,277,1.0,6.0,66,0.00,,,0.00,,2013-02-28 21:41:00,
2013-02-28 15:52:00,31.0,20.0,30.07,North,10,4.0,7.0,64,0.00,,,0.00,,2013-02-28 21:52:00,
2013-02-28 16:01:00,31.0,20.0,30.07,North,10,2.0,6.0,63,0.00,,,0.00,,2013-02-28 22:01:00,
2013-02-28 16:11:00,31.0,20.0,30.07,NNE,16,2.0,7.0,63,0.00,,,0.00,,2013-02-28 22:11:00,
2013-02-28 16:21:00,31.0,20.0,30.07,NNE,16,2.0,7.0,63,0.00,,,0.00,,2013-02-28 22:21:00,
2013-02-28 16:32:00,31.0,20.0,30.07,NNE,13,3.0,7.0,64,0.00,,,0.00,,2013-02-28 22:32:00,
2013-02-28 16:41:00,31.0,20.0,30.07,NNE,13,3.0,7.0,64,0.00,,,0.00,,2013-02-28 22:41:00,
2013-02-28 16:52:00,30.0,19.0,30.07,NNE,15,4.0,8.0,64,0.00,,,0.00,,2013-02-28 22:52:00,
2013-02-28 17:01:00,30.0,20.0,30.08,North,353,1.0,5.0,66,0.00,,,0.00,,2013-02-28 23:01:00,
2013-02-28 17:11:00,30.0,20.0,30.09,NNE,23,2.0,10.0,65,0.00,,,0.00,,2013-02-28 23:11:00,
2013-02-28 17:21:00,30.0,20.0,30.09,NNE,23,2.0,10.0,65,0.00,,,0.00,,2013-02-28 23:21:00,
2013-02-28 17:31:00,29.0,18.0,30.09,North,7,1.0,3.0,63,0.00,,,0.00,,2013-02-28 23:31:00,
2013-02-28 17:41:00,29.0,18.0,30.09,North,7,1.0,3.0,63,0.00,,,0.00,,2013-02-28 23:41:00,
2013-02-28 17:52:00,29.0,18.0,30.09,North,359,2.0,8.0,64,0.00,,,0.00,,2013-02-28 23:52:00,
2013-02-28 18:01:00,29.0,18.0,30.10,NNW,332,2.0,6.0,64,0.00,,,0.00,,2013-03-01 00:01:00,
2013-02-28 18:11:00,29.0,18.0,30.10,NNW,332,2.0,6.0,64,0.00,,,0.00,,2013-03-01 00:11:00,
2013-02-28 18:22:00,28.0,18.0,30.11,NNE,18,1.0,9.0,65,0.00,,,0.00,,2013-03-01 00:22:00,
2013-02-28 18:32:00,28.0,18.0,30.11,NNW,348,3.0,12.0,65,0.00,,,0.00,,2013-03-01 00:32:00,
2013-02-28 18:41:00,28.0,18.0,30.11,NNW,348,3.0,12.0,65,0.00,,,0.00,,2013-03-01 00:41:00,
2013-02-28 18:51:00,28.0,18.0,30.11,NNW,339,1.0,6.0,66,0.00,,,0.00,,2013-03-01 00:51:00,
2013-02-28 19:01:00,28.0,18.0,30.12,NW,326,2.0,10.0,65,0.00,,,0.00,,2013-03-01 01:01:00,
2013-02-28 19:11:00,27.0,17.0,30.12,WNW,298,0.0,7.0,65,0.00,,,0.00,,2013-03-01 01:11:00,
2013-02-28 19:21:00,27.0,17.0,30.12,WNW,298,0.0,7.0,65,0.00,,,0.00,,2013-03-01 01:21:00,
2013-02-28 19:32:00,27.0,17.0,30.12,NNW,339,1.0,3.0,65,0.00,,,0.00,,2013-03-01 01:32:00,
2013-02-28 19:42:00,27.0,17.0,30.12,NNW,339,1.0,3.0,65,0.00,,,0.00,,2013-03-01 01:42:00,
2013-02-28 19:51:00,27.0,16.0,30.13,WSW,258,2.0,6.0,64,0.00,,,0.00,,2013-03-01 01:51:00,
2013-02-28 20:01:00,26.0,16.0,30.13,WNW,290,1.0,6.0,64,0.00,,,0.00,,2013-03-01 02:01:00,
2013-02-28 20:11:00,26.0,16.0,30.14,WSW,240,2.0,8.0,64,0.00,,,0.00,,2013-03-01 02:11:00,
2013-02-28 20:21:00,26.0,16.0,30.14,WSW,240,2.0,8.0,64,0.00,,,0.00,,2013-03-01 02:21:00,
2013-02-28 20:31:00,26.0,16.0,30.14,WNW,286,1.0,7.0,65,0.00,,,0.00,,2013-03-01 02:31:00,
2013-02-28 20:42:00,26.0,16.0,30.14,WNW,286,1.0,7.0,65,0.00,,,0.00,,2013-03-01 02:42:00,
2013-02-28 20:52:00,26.0,16.0,30.14,West,272,2.0,3.0,65,0.00,,,0.00,,2013-03-01 02:52:00,
2013-02-28 21:01:00,26.0,16.0,30.14,SW,234,2.0,6.0,65,0.00,,,0.00,,2013-03-01 03:01:00,
2013-02-28 21:11:00,25.0,15.0,30.15,WSW,254,0.0,3.0,65,0.00,,,0.00,,2013-03-01 03:11:00,
2013-02-28 21:21:00,25.0,15.0,30.15,WSW,254,0.0,3.0,65,0.00,,,0.00,,2013-03-01 03:21:00,
2013-02-28 21:32:00,25.0,15.0,30.15,WSW,246,1.0,3.0,66,0.00,,,0.00,,2013-03-01 03:32:00,
2013-02-28 21:42:00,25.0,15.0,30.15,WSW,246,1.0,3.0,66,0.00,,,0.00,,2013-03-01 03:42:00,
2013-02-28 21:51:00,25.0,16.0,30.16,NW,311,1.0,2.0,67,0.00,,,0.00,,2013-03-01 03:51:00,
2013-02-28 22:01:00,24.0,15.0,30.16,North,2,1.0,7.0,67,0.00,,,0.00,,2013-03-01 04:01:00,
2013-02-28 22:11:00,24.0,15.0,30.16,North,2,1.0,7.0,67,0.00,,,0.00,,2013-03-01 04:11:00,
2013-02-28 22:21:00,24.0,15.0,30.16,North,3,2.0,3.0,68,0.00,,,0.00,,2013-03-01 04:21:00,
2013-02-28 22:32:00,24.0,15.0,30.16,NW,312,1.0,5.0,68,0.00,,,0.00,,2013-03-01 04:32:00,
2013-02-28 22:42:00,24.0,15.0,30.16,NW,312,1.0,5.0,68,0.00,,,0.00,,2013-03-01 04:42:00,
2013-02-28 22:51:00,24.0,15.0,30.16,WSW,258,1.0,5.0,69,0.00,,,0.00,,2013-03-01 04:51:00,
2013-02-28 23:02:00,24.0,15.0,30.16,West,264,1.0,3.0,69,0.00,,,0.00,,2013-03-01 05:02:00,
2013-02-28 23:11:00,24.0,15.0,30.16,West,264,1.0,3.0,69,0.00,,,0.00,,2013-03-01 05:11:00,
2013-02-28 23:22:00,24.0,15.0,30.16,WNW,301,1.0,5.0,69,0.00,,,0.00,,2013-03-01 05:22:00,
2013-02-28 23:32:00,24.0,15.0,30.17,NW,309,0.0,3.0,69,0.00,,,0.00,,2013-03-01 05:32:00,
2013-02-28 23:42:00,24.0,15.0,30.17,NW,309,0.0,3.0,69,0.00,,,0.00,,2013-03-01 05:42:00,
2013-02-28 23:52:00,24.0,15.0,30.16,SSW,193,0.0,2.0,68,0.00,,,0.00,,2013-03-01 05:52:00,